sensor_id;sensor_type;location;lat;lon;timestamp;pressure;altitude;pressure_sealevel;temperature;humidity
21433;BME280;18592;49.708;10.900;2023-08-20T00:01:05;98863.69;;;29.97;45.21
21433;BME280;18592;49.708;10.900;2023-08-20T00:03:11;98871.66;;;29.95;44.98
21433;BME280;18592;49.708;10.900;2023-08-20T00:05:13;98862.81;;;29.93;45.12
21433;BME280;18592;49.708;10.900;2023-08-20T00:07:13;98861.97;;;29.92;45.17
21433;BME280;18592;49.708;10.900;2023-08-20T00:09:15;98861.56;;;29.90;45.24
21433;BME280;18592;49.708;10.900;2023-08-20T00:11:17;98863.47;;;29.86;45.36
21433;BME280;18592;49.708;10.900;2023-08-20T00:13:21;98863.84;;;29.85;45.13
21433;BME280;18592;49.708;10.900;2023-08-20T00:15:22;98862.19;;;29.84;45.10
21433;BME280;18592;49.708;10.900;2023-08-20T00:17:27;98871.84;;;29.83;45.41
21433;BME280;18592;49.708;10.900;2023-08-20T00:19:28;98860.13;;;29.81;45.69
21433;BME280;18592;49.708;10.900;2023-08-20T00:21:29;98866.50;;;29.78;45.46
21433;BME280;18592;49.708;10.900;2023-08-20T00:23:29;98863.19;;;29.76;45.30
21433;BME280;18592;49.708;10.900;2023-08-20T00:25:31;98864.75;;;29.73;45.53
21433;BME280;18592;49.708;10.900;2023-08-20T00:27:32;98867.94;;;29.72;45.28
21433;BME280;18592;49.708;10.900;2023-08-20T00:29:32;98871.13;;;29.70;45.66
21433;BME280;18592;49.708;10.900;2023-08-20T00:31:33;98864.63;;;29.66;45.48
21433;BME280;18592;49.708;10.900;2023-08-20T00:33:37;98869.78;;;29.64;45.57
21433;BME280;18592;49.708;10.900;2023-08-20T00:35:38;98873.78;;;29.63;45.59
21433;BME280;18592;49.708;10.900;2023-08-20T00:37:39;98875.31;;;29.61;45.87
21433;BME280;18592;49.708;10.900;2023-08-20T00:39:39;98878.88;;;29.57;45.77
21433;BME280;18592;49.708;10.900;2023-08-20T00:41:40;98878.88;;;29.57;45.78
21433;BME280;18592;49.708;10.900;2023-08-20T00:43:40;98880.41;;;29.55;45.96
21433;BME280;18592;49.708;10.900;2023-08-20T00:45:41;98877.19;;;29.53;45.93
21433;BME280;18592;49.708;10.900;2023-08-20T00:47:48;98884.34;;;29.50;45.91
21433;BME280;18592;49.708;10.900;2023-08-20T00:49:49;98877.13;;;29.49;46.01
21433;BME280;18592;49.708;10.900;2023-08-20T00:51:50;98883.09;;;29.48;46.00
21433;BME280;18592;49.708;10.900;2023-08-20T00:53:51;98888.25;;;29.46;45.73
21433;BME280;18592;49.708;10.900;2023-08-20T00:55:51;98881.38;;;29.43;45.88
21433;BME280;18592;49.708;10.900;2023-08-20T00:57:52;98882.56;;;29.42;45.88
21433;BME280;18592;49.708;10.900;2023-08-20T00:59:54;98888.13;;;29.39;45.94
21433;BME280;18592;49.708;10.900;2023-08-20T01:01:55;98887.66;;;29.37;45.93
21433;BME280;18592;49.708;10.900;2023-08-20T01:03:58;98879.59;;;29.35;46.00
21433;BME280;18592;49.708;10.900;2023-08-20T01:06:11;98885.94;;;29.32;46.07
21433;BME280;18592;49.708;10.900;2023-08-20T01:10:49;98889.03;;;29.27;46.37
21433;BME280;18592;49.708;10.900;2023-08-20T01:12:54;98884.97;;;29.25;46.46
21433;BME280;18592;49.708;10.900;2023-08-20T01:14:57;98883.69;;;29.22;46.25
21433;BME280;18592;49.708;10.900;2023-08-20T01:17:06;98886.06;;;29.20;46.34
21433;BME280;18592;49.708;10.900;2023-08-20T01:19:10;98891.69;;;29.20;46.38
21433;BME280;18592;49.708;10.900;2023-08-20T01:21:39;98892.38;;;29.17;46.77
21433;BME280;18592;49.708;10.900;2023-08-20T01:23:59;98888.78;;;29.17;46.59
21433;BME280;18592;49.708;10.900;2023-08-20T01:28:24;98899.47;;;29.11;46.68
21433;BME280;18592;49.708;10.900;2023-08-20T01:30:25;98902.63;;;29.10;46.50
21433;BME280;18592;49.708;10.900;2023-08-20T01:32:26;98894.59;;;29.08;46.48
21433;BME280;18592;49.708;10.900;2023-08-20T01:34:26;98894.97;;;29.07;46.57
21433;BME280;18592;49.708;10.900;2023-08-20T01:36:27;98894.47;;;29.05;46.66
21433;BME280;18592;49.708;10.900;2023-08-20T01:38:29;98896.03;;;29.02;46.53
21433;BME280;18592;49.708;10.900;2023-08-20T01:40:36;98896.41;;;29.01;46.59
21433;BME280;18592;49.708;10.900;2023-08-20T01:42:37;98900.38;;;29.00;46.65
21433;BME280;18592;49.708;10.900;2023-08-20T01:44:37;98903.56;;;28.98;46.89
21433;BME280;18592;49.708;10.900;2023-08-20T01:46:38;98899.50;;;28.95;46.87
21433;BME280;18592;49.708;10.900;2023-08-20T01:48:54;98899.88;;;28.94;46.73
21433;BME280;18592;49.708;10.900;2023-08-20T01:51:08;98908.63;;;28.92;46.68
21433;BME280;18592;49.708;10.900;2023-08-20T01:53:10;98908.19;;;28.90;46.79
21433;BME280;18592;49.708;10.900;2023-08-20T01:55:12;98904.13;;;28.88;46.89
21433;BME280;18592;49.708;10.900;2023-08-20T01:57:12;98909.28;;;28.86;46.88
21433;BME280;18592;49.708;10.900;2023-08-20T01:59:13;98907.19;;;28.83;46.84
21433;BME280;18592;49.708;10.900;2023-08-20T02:11:55;98901.47;;;29.26;46.51
21433;BME280;18592;49.708;10.900;2023-08-20T02:13:56;98909.50;;;29.12;46.41
21433;BME280;18592;49.708;10.900;2023-08-20T02:16:04;98910.06;;;29.02;46.31
21433;BME280;18592;49.708;10.900;2023-08-20T02:18:06;98913.91;;;28.94;46.33
21433;BME280;18592;49.708;10.900;2023-08-20T02:20:13;98909.72;;;28.88;46.68
21433;BME280;18592;49.708;10.900;2023-08-20T02:22:13;98922.78;;;28.80;47.08
21433;BME280;18592;49.708;10.900;2023-08-20T02:35:11;98913.84;;;28.47;47.58
21433;BME280;18592;49.708;10.900;2023-08-20T02:37:24;98913.03;;;28.47;47.66
21433;BME280;18592;49.708;10.900;2023-08-20T02:39:24;98913.03;;;28.47;47.41
21433;BME280;18592;49.708;10.900;2023-08-20T02:41:36;98917.84;;;28.46;47.94
21433;BME280;18592;49.708;10.900;2023-08-20T02:43:37;98913.78;;;28.44;47.97
21433;BME280;18592;49.708;10.900;2023-08-20T02:45:42;98915.75;;;28.43;47.94
21433;BME280;18592;49.708;10.900;2023-08-20T02:47:48;98916.03;;;28.38;48.84
21433;BME280;18592;49.708;10.900;2023-08-20T02:49:48;98914.50;;;28.41;47.85
21433;BME280;18592;49.708;10.900;2023-08-20T02:51:50;98918.44;;;28.40;47.93
21433;BME280;18592;49.708;10.900;2023-08-20T02:54:05;98914.84;;;28.39;47.69
21433;BME280;18592;49.708;10.900;2023-08-20T02:56:16;98911.22;;;28.39;47.86
21433;BME280;18592;49.708;10.900;2023-08-20T02:58:17;98910.41;;;28.38;47.74
21433;BME280;18592;49.708;10.900;2023-08-20T03:00:18;98909.59;;;28.38;47.74
21433;BME280;18592;49.708;10.900;2023-08-20T03:02:20;98912.66;;;28.32;48.08
21433;BME280;18592;49.708;10.900;2023-08-20T03:04:20;98912.56;;;28.29;48.11
21433;BME280;18592;49.708;10.900;2023-08-20T03:06:23;98913.38;;;28.29;48.04
21433;BME280;18592;49.708;10.900;2023-08-20T03:08:31;98910.94;;;28.28;48.19
21433;BME280;18592;49.708;10.900;2023-08-20T03:10:34;98906.50;;;28.27;48.11
21433;BME280;18592;49.708;10.900;2023-08-20T03:12:35;98919.69;;;28.26;48.04
21433;BME280;18592;49.708;10.900;2023-08-20T03:14:36;98918.09;;;28.25;47.98
21433;BME280;18592;49.708;10.900;2023-08-20T03:16:36;98914.47;;;28.25;48.15
21433;BME280;18592;49.708;10.900;2023-08-20T03:18:38;98916.00;;;28.22;47.96
21433;BME280;18592;49.708;10.900;2023-08-20T03:20:39;98914.72;;;28.20;48.13
21433;BME280;18592;49.708;10.900;2023-08-20T03:22:41;98914.25;;;28.18;48.16
21433;BME280;18592;49.708;10.900;2023-08-20T03:24:42;98910.53;;;28.14;48.32
21433;BME280;18592;49.708;10.900;2023-08-20T03:26:43;98920.13;;;28.13;48.35
21433;BME280;18592;49.708;10.900;2023-08-20T03:28:45;98916.06;;;28.10;48.25
21433;BME280;18592;49.708;10.900;2023-08-20T03:30:51;98917.94;;;28.06;48.16
21433;BME280;18592;49.708;10.900;2023-08-20T03:32:57;98918.28;;;28.05;48.09
21433;BME280;18592;49.708;10.900;2023-08-20T03:34:59;98918.19;;;28.01;48.14
21433;BME280;18592;49.708;10.900;2023-08-20T03:37:04;98924.47;;;27.98;48.39
21433;BME280;18592;49.708;10.900;2023-08-20T03:39:04;98923.69;;;27.98;48.56
21433;BME280;18592;49.708;10.900;2023-08-20T03:41:23;98925.19;;;27.95;47.99
21433;BME280;18592;49.708;10.900;2023-08-20T03:43:25;98932.78;;;27.95;48.33
21433;BME280;18592;49.708;10.900;2023-08-20T03:45:30;98932.66;;;27.91;48.70
21433;BME280;18592;49.708;10.900;2023-08-20T03:47:32;98929.06;;;27.91;48.30
21433;BME280;18592;49.708;10.900;2023-08-20T03:49:35;98924.97;;;27.88;48.49
21433;BME280;18592;49.708;10.900;2023-08-20T03:51:36;98928.50;;;27.85;48.55
21433;BME280;18592;49.708;10.900;2023-08-20T03:53:38;98929.66;;;27.84;48.45
21433;BME280;18592;49.708;10.900;2023-08-20T03:55:38;98926.31;;;27.79;48.60
21433;BME280;18592;49.708;10.900;2023-08-20T03:57:40;98931.81;;;27.75;48.80
21433;BME280;18592;49.708;10.900;2023-08-20T03:59:50;98931.44;;;27.77;48.41
21433;BME280;18592;49.708;10.900;2023-08-20T04:01:51;98938.13;;;27.72;49.03
21433;BME280;18592;49.708;10.900;2023-08-20T04:03:53;98934.50;;;27.71;48.92
21433;BME280;18592;49.708;10.900;2023-08-20T04:05:53;98933.22;;;27.69;48.54
21433;BME280;18592;49.708;10.900;2023-08-20T04:08:03;98936.72;;;27.66;48.71
21433;BME280;18592;49.708;10.900;2023-08-20T04:10:04;98936.28;;;27.64;48.86
21433;BME280;18592;49.708;10.900;2023-08-20T04:12:10;98940.97;;;27.60;49.04
21433;BME280;18592;49.708;10.900;2023-08-20T04:14:12;98938.63;;;27.62;48.53
21433;BME280;18592;49.708;10.900;2023-08-20T04:16:14;98940.97;;;27.60;49.36
21433;BME280;18592;49.708;10.900;2023-08-20T04:18:16;98940.97;;;27.60;49.15
21433;BME280;18592;49.708;10.900;2023-08-20T04:30:57;98944.22;;;28.02;47.90
21433;BME280;18592;49.708;10.900;2023-08-20T04:33:04;98943.69;;;27.84;48.55
21433;BME280;18592;49.708;10.900;2023-08-20T04:35:05;98943.72;;;27.72;49.00
21433;BME280;18592;49.708;10.900;2023-08-20T04:37:07;98950.97;;;27.61;49.02
21433;BME280;18592;49.708;10.900;2023-08-20T04:39:07;98944.34;;;27.53;49.51
21433;BME280;18592;49.708;10.900;2023-08-20T04:41:11;98942.16;;;27.47;49.62
21433;BME280;18592;49.708;10.900;2023-08-20T04:43:13;98944.50;;;27.45;49.72
21433;BME280;18592;49.708;10.900;2023-08-20T04:45:18;98948.81;;;27.42;49.42
21433;BME280;18592;49.708;10.900;2023-08-20T04:47:21;98946.03;;;27.42;49.40
21433;BME280;18592;49.708;10.900;2023-08-20T04:49:22;98952.16;;;27.36;49.80
21433;BME280;18592;49.708;10.900;2023-08-20T04:51:22;98957.66;;;27.32;50.15
21433;BME280;18592;49.708;10.900;2023-08-20T04:53:23;98958.81;;;27.31;49.97
21433;BME280;18592;49.708;10.900;2023-08-20T04:55:23;98951.94;;;27.29;49.99
21433;BME280;18592;49.708;10.900;2023-08-20T04:57:25;98958.38;;;27.29;49.98
21433;BME280;18592;49.708;10.900;2023-08-20T04:59:25;98963.50;;;27.27;50.09
21433;BME280;18592;49.708;10.900;2023-08-20T05:01:51;98958.25;;;27.26;49.95
21433;BME280;18592;49.708;10.900;2023-08-20T05:04:07;98954.53;;;27.22;50.22
21433;BME280;18592;49.708;10.900;2023-08-20T05:06:08;98957.31;;;27.22;50.57
21433;BME280;18592;49.708;10.900;2023-08-20T05:08:09;98960.13;;;27.22;50.57
21433;BME280;18592;49.708;10.900;2023-08-20T05:10:09;98955.34;;;27.22;50.51
21433;BME280;18592;49.708;10.900;2023-08-20T05:12:10;98954.97;;;27.24;50.43
21433;BME280;18592;49.708;10.900;2023-08-20T05:14:19;98963.75;;;27.22;51.15
21433;BME280;18592;49.708;10.900;2023-08-20T05:16:22;98962.91;;;27.22;50.52
21433;BME280;18592;49.708;10.900;2023-08-20T05:18:25;98963.75;;;27.22;50.32
21433;BME280;18592;49.708;10.900;2023-08-20T05:20:28;98960.94;;;27.22;50.40
21433;BME280;18592;49.708;10.900;2023-08-20T05:22:28;98962.56;;;27.23;50.75
21433;BME280;18592;49.708;10.900;2023-08-20T05:24:29;98964.53;;;27.23;50.70
21433;BME280;18592;49.708;10.900;2023-08-20T05:26:31;98969.81;;;27.24;51.08
21433;BME280;18592;49.708;10.900;2023-08-20T05:28:32;98972.69;;;27.28;50.71
21433;BME280;18592;49.708;10.900;2023-08-20T05:30:33;98971.53;;;27.29;50.96
21433;BME280;18592;49.708;10.900;2023-08-20T05:32:34;98969.66;;;27.33;50.35
21433;BME280;18592;49.708;10.900;2023-08-20T05:34:34;98975.16;;;27.29;50.58
21433;BME280;18592;49.708;10.900;2023-08-20T05:36:46;98968.03;;;27.32;50.38
21433;BME280;18592;49.708;10.900;2023-08-20T05:38:47;98964.06;;;27.33;50.63
21433;BME280;18592;49.708;10.900;2023-08-20T05:40:47;98966.84;;;27.33;50.63
21433;BME280;18592;49.708;10.900;2023-08-20T05:42:48;98960.56;;;27.36;50.32
21433;BME280;18592;49.708;10.900;2023-08-20T05:44:52;98967.44;;;27.38;50.39
21433;BME280;18592;49.708;10.900;2023-08-20T05:46:59;98967.94;;;27.40;50.39
21433;BME280;18592;49.708;10.900;2023-08-20T05:49:01;98969.56;;;27.41;50.58
21433;BME280;18592;49.708;10.900;2023-08-20T05:51:06;98965.25;;;27.44;50.41
21433;BME280;18592;49.708;10.900;2023-08-20T05:53:23;98965.38;;;27.47;50.80
21433;BME280;18592;49.708;10.900;2023-08-20T05:55:25;98968.28;;;27.51;50.87
21433;BME280;18592;49.708;10.900;2023-08-20T05:57:28;98966.88;;;27.57;50.66
21433;BME280;18592;49.708;10.900;2023-08-20T05:59:29;98970.59;;;27.61;50.41
21433;BME280;18592;49.708;10.900;2023-08-20T06:01:29;98960.31;;;27.65;50.64
21433;BME280;18592;49.708;10.900;2023-08-20T06:03:30;98957.63;;;27.68;50.47
21433;BME280;18592;49.708;10.900;2023-08-20T06:05:30;98959.00;;;27.75;50.71
21433;BME280;18592;49.708;10.900;2023-08-20T06:07:32;98959.94;;;27.79;50.66
21433;BME280;18592;49.708;10.900;2023-08-20T06:09:32;98964.94;;;27.85;50.77
21433;BME280;18592;49.708;10.900;2023-08-20T06:11:33;98968.78;;;27.93;50.59
21433;BME280;18592;49.708;10.900;2023-08-20T06:13:33;98964.53;;;27.99;50.60
21433;BME280;18592;49.708;10.900;2023-08-20T06:15:33;98967.56;;;28.06;50.60
21433;BME280;18592;49.708;10.900;2023-08-20T06:17:35;98970.69;;;28.16;50.98
21433;BME280;18592;49.708;10.900;2023-08-20T06:19:41;98975.31;;;28.24;50.94
21433;BME280;18592;49.708;10.900;2023-08-20T06:21:41;98979.25;;;28.36;50.60
21433;BME280;18592;49.708;10.900;2023-08-20T06:23:45;98982.38;;;28.46;50.90
21433;BME280;18592;49.708;10.900;2023-08-20T06:25:45;98983.00;;;28.55;50.74
21433;BME280;18592;49.708;10.900;2023-08-20T06:27:46;98982.50;;;28.65;50.68
21433;BME280;18592;49.708;10.900;2023-08-20T06:29:46;98981.97;;;28.75;50.51
21433;BME280;18592;49.708;10.900;2023-08-20T06:31:46;98984.63;;;28.84;50.37
21433;BME280;18592;49.708;10.900;2023-08-20T06:33:47;98988.06;;;28.93;50.58
21433;BME280;18592;49.708;10.900;2023-08-20T06:35:48;98989.16;;;29.04;50.22
21433;BME280;18592;49.708;10.900;2023-08-20T06:37:51;98985.81;;;29.14;50.38
21433;BME280;18592;49.708;10.900;2023-08-20T06:39:51;98975.66;;;29.25;50.55
21433;BME280;18592;49.708;10.900;2023-08-20T06:41:52;98983.19;;;29.37;50.27
21433;BME280;18592;49.708;10.900;2023-08-20T06:43:54;98982.25;;;29.48;50.24
21433;BME280;18592;49.708;10.900;2023-08-20T06:45:54;98985.31;;;29.59;50.29
21433;BME280;18592;49.708;10.900;2023-08-20T06:47:56;98991.63;;;29.72;50.02
21433;BME280;18592;49.708;10.900;2023-08-20T06:49:59;98989.53;;;29.84;49.78
21433;BME280;18592;49.708;10.900;2023-08-20T06:52:00;98988.56;;;29.96;49.91
21433;BME280;18592;49.708;10.900;2023-08-20T06:54:16;98975.56;;;30.07;49.83
21433;BME280;18592;49.708;10.900;2023-08-20T06:56:16;98979.78;;;30.16;49.75
21433;BME280;18592;49.708;10.900;2023-08-20T06:58:17;98987.63;;;30.27;49.63
21433;BME280;18592;49.708;10.900;2023-08-20T07:00:21;98989.78;;;30.33;49.36
21433;BME280;18592;49.708;10.900;2023-08-20T07:02:23;98996.41;;;30.41;49.62
21433;BME280;18592;49.708;10.900;2023-08-20T07:04:23;98998.91;;;30.46;49.50
21433;BME280;18592;49.708;10.900;2023-08-20T07:06:24;99001.47;;;30.54;49.63
21433;BME280;18592;49.708;10.900;2023-08-20T07:08:24;98999.63;;;30.62;49.37
21433;BME280;18592;49.708;10.900;2023-08-20T07:10:25;99001.81;;;30.72;49.08
21433;BME280;18592;49.708;10.900;2023-08-20T07:12:25;99000.34;;;30.78;49.05
21433;BME280;18592;49.708;10.900;2023-08-20T07:14:26;99007.25;;;30.84;48.92
21433;BME280;18592;49.708;10.900;2023-08-20T07:16:26;98999.31;;;30.90;49.22
21433;BME280;18592;49.708;10.900;2023-08-20T07:18:32;99005.50;;;30.95;49.07
21433;BME280;18592;49.708;10.900;2023-08-20T07:20:43;99014.06;;;31.02;48.92
21433;BME280;18592;49.708;10.900;2023-08-20T07:22:48;99005.78;;;31.09;49.07
21433;BME280;18592;49.708;10.900;2023-08-20T07:24:51;99014.69;;;31.15;49.15
21433;BME280;18592;49.708;10.900;2023-08-20T07:26:54;99006.00;;;31.23;48.88
21433;BME280;18592;49.708;10.900;2023-08-20T07:29:01;99010.13;;;31.29;48.85
21433;BME280;18592;49.708;10.900;2023-08-20T07:31:02;99012.69;;;31.38;48.61
21433;BME280;18592;49.708;10.900;2023-08-20T07:33:06;99002.72;;;31.44;49.12
21433;BME280;18592;49.708;10.900;2023-08-20T07:35:07;99000.03;;;31.51;48.44
21433;BME280;18592;49.708;10.900;2023-08-20T07:37:12;98994.50;;;31.58;48.91
21433;BME280;18592;49.708;10.900;2023-08-20T07:39:19;98992.19;;;31.64;48.33
21433;BME280;18592;49.708;10.900;2023-08-20T07:41:21;98997.91;;;31.71;48.44
21433;BME280;18592;49.708;10.900;2023-08-20T07:43:24;98994.78;;;31.76;48.34
21433;BME280;18592;49.708;10.900;2023-08-20T07:45:25;98995.25;;;31.81;48.45
21433;BME280;18592;49.708;10.900;2023-08-20T07:47:28;98999.38;;;31.87;48.64
21433;BME280;18592;49.708;10.900;2023-08-20T07:49:29;98998.72;;;31.97;48.17
21433;BME280;18592;49.708;10.900;2023-08-20T07:51:30;98995.63;;;32.06;48.26
21433;BME280;18592;49.708;10.900;2023-08-20T07:53:32;99001.00;;;32.15;48.33
21433;BME280;18592;49.708;10.900;2023-08-20T07:55:35;99010.78;;;32.24;48.55
21433;BME280;18592;49.708;10.900;2023-08-20T07:57:37;99009.28;;;32.34;48.27
21433;BME280;18592;49.708;10.900;2023-08-20T07:59:38;99008.19;;;32.42;48.04
21433;BME280;18592;49.708;10.900;2023-08-20T08:01:49;99012.72;;;32.50;48.00
21433;BME280;18592;49.708;10.900;2023-08-20T08:03:49;99012.00;;;32.56;48.39
21433;BME280;18592;49.708;10.900;2023-08-20T08:05:51;99016.19;;;32.66;48.32
21433;BME280;18592;49.708;10.900;2023-08-20T08:07:53;99013.44;;;32.73;48.25
21433;BME280;18592;49.708;10.900;2023-08-20T08:09:53;99022.38;;;32.82;47.97
21433;BME280;18592;49.708;10.900;2023-08-20T08:11:54;99029.75;;;32.90;47.88
21433;BME280;18592;49.708;10.900;2023-08-20T08:13:54;99024.97;;;32.98;48.11
21433;BME280;18592;49.708;10.900;2023-08-20T08:16:08;99043.25;;;33.07;48.03
21433;BME280;18592;49.708;10.900;2023-08-20T08:18:11;99035.28;;;33.16;47.97
21433;BME280;18592;49.708;10.900;2023-08-20T08:20:12;99035.75;;;33.25;47.77
21433;BME280;18592;49.708;10.900;2023-08-20T08:22:13;99033.03;;;33.36;47.50
21433;BME280;18592;49.708;10.900;2023-08-20T08:24:13;99036.75;;;33.44;47.63
21433;BME280;18592;49.708;10.900;2023-08-20T08:26:14;99034.38;;;33.53;47.90
21433;BME280;18592;49.708;10.900;2023-08-20T08:28:16;99042.97;;;33.63;47.63
21433;BME280;18592;49.708;10.900;2023-08-20T08:41:11;99032.44;;;34.15;47.63
21433;BME280;18592;49.708;10.900;2023-08-20T08:43:14;99040.59;;;34.27;47.55
21433;BME280;18592;49.708;10.900;2023-08-20T08:45:19;99043.47;;;34.37;47.47
21433;BME280;18592;49.708;10.900;2023-08-20T08:47:21;99032.97;;;34.48;47.19
21433;BME280;18592;49.708;10.900;2023-08-20T08:49:22;99041.19;;;34.61;47.34
21433;BME280;18592;49.708;10.900;2023-08-20T08:51:23;99046.84;;;34.71;47.20
21433;BME280;18592;49.708;10.900;2023-08-20T08:53:25;99049.31;;;34.80;47.05
21433;BME280;18592;49.708;10.900;2023-08-20T08:55:26;99042.06;;;34.89;47.45
21433;BME280;18592;49.708;10.900;2023-08-20T08:57:26;99044.50;;;34.98;47.00
21433;BME280;18592;49.708;10.900;2023-08-20T08:59:27;99042.13;;;35.07;46.69
21433;BME280;18592;49.708;10.900;2023-08-20T09:01:27;99034.06;;;35.16;47.05
21433;BME280;18592;49.708;10.900;2023-08-20T09:03:28;99042.16;;;35.28;47.00
21433;BME280;18592;49.708;10.900;2023-08-20T09:05:29;99034.88;;;35.38;46.79
21433;BME280;18592;49.708;10.900;2023-08-20T09:07:42;99036.88;;;35.48;45.72
21433;BME280;18592;49.708;10.900;2023-08-20T09:09:58;99028.00;;;35.60;46.44
21433;BME280;18592;49.708;10.900;2023-08-20T09:12:15;99033.66;;;35.70;46.52
21433;BME280;18592;49.708;10.900;2023-08-20T09:14:29;99034.44;;;35.85;46.56
21433;BME280;18592;49.708;10.900;2023-08-20T09:16:30;99035.66;;;35.95;46.12
21433;BME280;18592;49.708;10.900;2023-08-20T09:18:32;99036.06;;;36.04;46.38
21433;BME280;18592;49.708;10.900;2023-08-20T09:20:37;99038.88;;;36.11;45.58
21433;BME280;18592;49.708;10.900;2023-08-20T09:22:38;99040.88;;;36.21;45.61
21433;BME280;18592;49.708;10.900;2023-08-20T09:24:46;99047.78;;;36.27;45.44
21433;BME280;18592;49.708;10.900;2023-08-20T09:26:47;99034.78;;;36.33;45.36
21433;BME280;18592;49.708;10.900;2023-08-20T09:28:55;99041.63;;;36.39;45.73
21433;BME280;18592;49.708;10.900;2023-08-20T09:30:58;99033.50;;;36.45;45.92
21433;BME280;18592;49.708;10.900;2023-08-20T09:33:07;99034.75;;;36.51;45.29
21433;BME280;18592;49.708;10.900;2023-08-20T09:35:18;99037.94;;;36.56;45.01
21433;BME280;18592;49.708;10.900;2023-08-20T09:37:21;99037.50;;;36.61;45.21
21433;BME280;18592;49.708;10.900;2023-08-20T09:39:22;99039.91;;;36.66;44.97
21433;BME280;18592;49.708;10.900;2023-08-20T09:41:23;99039.09;;;36.73;45.30
21433;BME280;18592;49.708;10.900;2023-08-20T09:43:30;99037.03;;;36.80;45.11
21433;BME280;18592;49.708;10.900;2023-08-20T09:45:31;99047.53;;;36.87;44.80
21433;BME280;18592;49.708;10.900;2023-08-20T09:47:38;99037.78;;;36.95;44.35
21433;BME280;18592;49.708;10.900;2023-08-20T09:49:45;99049.91;;;37.03;44.68
21433;BME280;18592;49.708;10.900;2023-08-20T09:51:50;99037.66;;;37.13;44.91
21433;BME280;18592;49.708;10.900;2023-08-20T09:54:00;99042.88;;;37.21;44.51
21433;BME280;18592;49.708;10.900;2023-08-20T09:56:12;99039.94;;;37.32;44.57
21433;BME280;18592;49.708;10.900;2023-08-20T09:58:20;99036.66;;;37.40;44.18
21433;BME280;18592;49.708;10.900;2023-08-20T10:00:25;99035.38;;;37.48;44.36
21433;BME280;18592;49.708;10.900;2023-08-20T10:02:29;99036.50;;;37.58;44.43
21433;BME280;18592;49.708;10.900;2023-08-20T10:04:30;99034.00;;;37.67;44.11
21433;BME280;18592;49.708;10.900;2023-08-20T10:06:33;99024.97;;;37.76;44.34
21433;BME280;18592;49.708;10.900;2023-08-20T10:08:38;99035.47;;;37.86;44.19
21433;BME280;18592;49.708;10.900;2023-08-20T10:10:38;99033.72;;;37.95;43.97
21433;BME280;18592;49.708;10.900;2023-08-20T10:12:45;99031.22;;;38.04;43.96
21433;BME280;18592;49.708;10.900;2023-08-20T10:14:46;99032.31;;;38.14;43.92
21433;BME280;18592;49.708;10.900;2023-08-20T10:16:46;99026.13;;;38.23;44.17
21433;BME280;18592;49.708;10.900;2023-08-20T10:18:47;99039.06;;;38.31;43.82
21433;BME280;18592;49.708;10.900;2023-08-20T10:20:51;99037.34;;;38.40;44.02
21433;BME280;18592;49.708;10.900;2023-08-20T10:22:53;99031.50;;;38.51;43.84
21433;BME280;18592;49.708;10.900;2023-08-20T10:24:54;99043.19;;;38.60;43.24
21433;BME280;18592;49.708;10.900;2023-08-20T10:27:38;99041.47;;;38.66;43.12
21433;BME280;18592;49.708;10.900;2023-08-20T10:29:40;99038.09;;;38.78;42.96
21433;BME280;18592;49.708;10.900;2023-08-20T10:31:58;99036.78;;;38.86;42.78
21433;BME280;18592;49.708;10.900;2023-08-20T10:33:59;99035.00;;;38.96;42.60
21433;BME280;18592;49.708;10.900;2023-08-20T10:36:07;99040.22;;;39.01;42.17
21433;BME280;18592;49.708;10.900;2023-08-20T10:38:13;99033.19;;;39.09;42.33
21433;BME280;18592;49.708;10.900;2023-08-20T10:40:13;99033.06;;;39.16;42.67
21433;BME280;18592;49.708;10.900;2023-08-20T10:44:17;99023.47;;;39.29;41.82
21433;BME280;18592;49.708;10.900;2023-08-20T10:46:29;99028.28;;;39.36;41.82
21433;BME280;18592;49.708;10.900;2023-08-20T10:50:51;99018.28;;;39.48;41.03
21433;BME280;18592;49.708;10.900;2023-08-20T10:52:56;99020.28;;;39.51;40.39
21433;BME280;18592;49.708;10.900;2023-08-20T10:55:03;99026.38;;;39.53;40.38
21433;BME280;18592;49.708;10.900;2023-08-20T10:57:07;99028.00;;;39.54;39.95
21433;BME280;18592;49.708;10.900;2023-08-20T11:01:22;99026.69;;;39.58;40.02
21433;BME280;18592;49.708;10.900;2023-08-20T11:03:22;99019.69;;;39.63;40.25
21433;BME280;18592;49.708;10.900;2023-08-20T11:05:23;99023.72;;;39.65;40.04
21433;BME280;18592;49.708;10.900;2023-08-20T11:07:24;99022.41;;;39.70;39.70
21433;BME280;18592;49.708;10.900;2023-08-20T11:09:31;99023.19;;;39.74;39.93
21433;BME280;18592;49.708;10.900;2023-08-20T11:11:41;99020.63;;;39.79;39.72
21433;BME280;18592;49.708;10.900;2023-08-20T11:13:56;99023.41;;;39.83;39.89
21433;BME280;18592;49.708;10.900;2023-08-20T11:16:03;99013.91;;;39.89;39.39
21433;BME280;18592;49.708;10.900;2023-08-20T11:18:04;99011.78;;;39.93;39.36
21433;BME280;18592;49.708;10.900;2023-08-20T11:20:20;99008.00;;;40.00;39.56
21433;BME280;18592;49.708;10.900;2023-08-20T11:22:20;99022.59;;;40.06;39.29
21433;BME280;18592;49.708;10.900;2023-08-20T11:24:21;99010.25;;;40.12;39.27
21433;BME280;18592;49.708;10.900;2023-08-20T11:26:21;99010.53;;;40.18;38.97
21433;BME280;18592;49.708;10.900;2023-08-20T11:28:25;99007.19;;;40.23;38.67
21433;BME280;18592;49.708;10.900;2023-08-20T11:30:29;99009.53;;;40.28;38.20
21433;BME280;18592;49.708;10.900;2023-08-20T11:32:30;99010.25;;;40.32;38.37
21433;BME280;18592;49.708;10.900;2023-08-20T11:34:31;99007.31;;;40.35;38.74
21433;BME280;18592;49.708;10.900;2023-08-20T11:36:32;99010.44;;;40.41;37.96
21433;BME280;18592;49.708;10.900;2023-08-20T11:38:32;99017.34;;;40.43;37.45
21433;BME280;18592;49.708;10.900;2023-08-20T11:40:33;99010.78;;;40.46;37.44